sensor_id;sensor_type;location;lat;lon;timestamp;temperature;humidity
65058;HTU21D;51644;51.068;5.860;2022-07-01T00:00:39;17.05;76.89
65058;HTU21D;51644;51.068;5.860;2022-07-01T00:01:38;17.04;76.94
65058;HTU21D;51644;51.068;5.860;2022-07-01T00:02:38;17.03;76.99
65058;HTU21D;51644;51.068;5.860;2022-07-01T00:03:36;17.04;77.00
65058;HTU21D;51644;51.068;5.860;2022-07-01T00:04:35;17.06;77.05
65058;HTU21D;51644;51.068;5.860;2022-07-01T00:05:53;17.04;77.12
65058;HTU21D;51644;51.068;5.860;2022-07-01T00:06:51;17.03;76.95
65058;HTU21D;51644;51.068;5.860;2022-07-01T00:07:50;17.06;76.96
65058;HTU21D;51644;51.068;5.860;2022-07-01T00:08:48;17.06;77.01
65058;HTU21D;51644;51.068;5.860;2022-07-01T00:09:47;17.06;77.02
65058;HTU21D;51644;51.068;5.860;2022-07-01T00:10:46;17.02;77.23
65058;HTU21D;51644;51.068;5.860;2022-07-01T00:11:44;17.02;77.11
65058;HTU21D;51644;51.068;5.860;2022-07-01T00:12:43;16.99;77.29
65058;HTU21D;51644;51.068;5.860;2022-07-01T00:13:42;17.00;77.33
65058;HTU21D;51644;51.068;5.860;2022-07-01T00:14:40;17.01;77.34
65058;HTU21D;51644;51.068;5.860;2022-07-01T00:15:40;17.03;77.36
65058;HTU21D;51644;51.068;5.860;2022-07-01T00:16:39;17.05;77.34
65058;HTU21D;51644;51.068;5.860;2022-07-01T00:17:38;17.08;77.36
65058;HTU21D;51644;51.068;5.860;2022-07-01T00:18:38;17.09;77.25
65058;HTU21D;51644;51.068;5.860;2022-07-01T00:19:37;17.10;77.18
65058;HTU21D;51644;51.068;5.860;2022-07-01T00:20:36;17.11;77.25
65058;HTU21D;51644;51.068;5.860;2022-07-01T00:21:35;17.14;77.28
65058;HTU21D;51644;51.068;5.860;2022-07-01T00:22:34;17.13;77.17
65058;HTU21D;51644;51.068;5.860;2022-07-01T00:23:33;17.14;77.19
65058;HTU21D;51644;51.068;5.860;2022-07-01T00:24:31;17.15;77.18
65058;HTU21D;51644;51.068;5.860;2022-07-01T00:25:30;17.16;77.17
65058;HTU21D;51644;51.068;5.860;2022-07-01T00:26:29;17.18;77.18
65058;HTU21D;51644;51.068;5.860;2022-07-01T00:27:28;17.19;77.09
65058;HTU21D;51644;51.068;5.860;2022-07-01T00:28:27;17.21;77.08
65058;HTU21D;51644;51.068;5.860;2022-07-01T00:29:25;17.23;77.06
65058;HTU21D;51644;51.068;5.860;2022-07-01T00:30:24;17.25;76.98
65058;HTU21D;51644;51.068;5.860;2022-07-01T00:31:23;17.26;76.90
65058;HTU21D;51644;51.068;5.860;2022-07-01T00:32:34;17.28;76.92
65058;HTU21D;51644;51.068;5.860;2022-07-01T00:33:32;17.29;76.89
65058;HTU21D;51644;51.068;5.860;2022-07-01T00:34:31;17.28;76.98
65058;HTU21D;51644;51.068;5.860;2022-07-01T00:35:30;17.32;76.67
65058;HTU21D;51644;51.068;5.860;2022-07-01T00:36:42;17.29;76.74
65058;HTU21D;51644;51.068;5.860;2022-07-01T00:37:41;17.25;76.92
65058;HTU21D;51644;51.068;5.860;2022-07-01T00:38:40;17.30;76.79
65058;HTU21D;51644;51.068;5.860;2022-07-01T00:39:39;17.31;76.89
65058;HTU21D;51644;51.068;5.860;2022-07-01T00:40:37;17.32;76.79
65058;HTU21D;51644;51.068;5.860;2022-07-01T00:41:36;17.37;76.74
65058;HTU21D;51644;51.068;5.860;2022-07-01T00:42:39;17.40;76.72
65058;HTU21D;51644;51.068;5.860;2022-07-01T00:43:38;17.33;76.96
65058;HTU21D;51644;51.068;5.860;2022-07-01T00:44:38;17.29;76.96
65058;HTU21D;51644;51.068;5.860;2022-07-01T00:45:44;17.26;76.88
65058;HTU21D;51644;51.068;5.860;2022-07-01T00:46:45;17.23;76.92
65058;HTU21D;51644;51.068;5.860;2022-07-01T00:47:44;17.23;76.86
65058;HTU21D;51644;51.068;5.860;2022-07-01T00:48:43;17.18;77.05
65058;HTU21D;51644;51.068;5.860;2022-07-01T00:49:42;17.16;77.14
65058;HTU21D;51644;51.068;5.860;2022-07-01T00:50:41;17.09;77.31
65058;HTU21D;51644;51.068;5.860;2022-07-01T00:51:40;17.08;77.25
65058;HTU21D;51644;51.068;5.860;2022-07-01T00:52:43;17.01;77.48
65058;HTU21D;51644;51.068;5.860;2022-07-01T00:53:42;17.02;77.43
65058;HTU21D;51644;51.068;5.860;2022-07-01T00:54:42;17.00;77.53
65058;HTU21D;51644;51.068;5.860;2022-07-01T00:55:41;16.98;77.61
65058;HTU21D;51644;51.068;5.860;2022-07-01T00:56:40;16.94;77.71
65058;HTU21D;51644;51.068;5.860;2022-07-01T00:57:41;16.93;77.69
65058;HTU21D;51644;51.068;5.860;2022-07-01T00:58:41;16.88;77.91
65058;HTU21D;51644;51.068;5.860;2022-07-01T00:59:40;16.84;78.17
65058;HTU21D;51644;51.068;5.860;2022-07-01T01:00:39;16.82;77.96
65058;HTU21D;51644;51.068;5.860;2022-07-01T01:01:38;16.81;78.05
65058;HTU21D;51644;51.068;5.860;2022-07-01T01:02:37;16.79;78.15
65058;HTU21D;51644;51.068;5.860;2022-07-01T01:03:37;16.78;78.13
65058;HTU21D;51644;51.068;5.860;2022-07-01T01:04:36;16.79;78.10
65058;HTU21D;51644;51.068;5.860;2022-07-01T01:05:38;16.77;78.18
65058;HTU21D;51644;51.068;5.860;2022-07-01T01:06:37;16.73;78.14
65058;HTU21D;51644;51.068;5.860;2022-07-01T01:07:38;16.77;78.08
65058;HTU21D;51644;51.068;5.860;2022-07-01T01:08:37;16.74;78.28
65058;HTU21D;51644;51.068;5.860;2022-07-01T01:09:36;16.76;78.08
65058;HTU21D;51644;51.068;5.860;2022-07-01T01:10:37;16.78;78.00
65058;HTU21D;51644;51.068;5.860;2022-07-01T01:11:35;16.80;77.98
65058;HTU21D;51644;51.068;5.860;2022-07-01T01:12:35;16.81;77.90
65058;HTU21D;51644;51.068;5.860;2022-07-01T01:13:34;16.80;77.95
65058;HTU21D;51644;51.068;5.860;2022-07-01T01:14:49;16.80;77.85
65058;HTU21D;51644;51.068;5.860;2022-07-01T01:15:48;16.81;77.89
65058;HTU21D;51644;51.068;5.860;2022-07-01T01:16:47;16.81;77.79
65058;HTU21D;51644;51.068;5.860;2022-07-01T01:17:49;16.81;77.84
65058;HTU21D;51644;51.068;5.860;2022-07-01T01:18:49;16.82;77.72
65058;HTU21D;51644;51.068;5.860;2022-07-01T01:19:49;16.86;77.67
65058;HTU21D;51644;51.068;5.860;2022-07-01T01:20:48;16.82;77.72
65058;HTU21D;51644;51.068;5.860;2022-07-01T01:21:47;16.81;77.52
65058;HTU21D;51644;51.068;5.860;2022-07-01T01:22:46;16.79;77.72
65058;HTU21D;51644;51.068;5.860;2022-07-01T01:23:46;16.78;77.72
65058;HTU21D;51644;51.068;5.860;2022-07-01T01:24:46;16.74;77.82
65058;HTU21D;51644;51.068;5.860;2022-07-01T01:25:48;16.75;77.71
65058;HTU21D;51644;51.068;5.860;2022-07-01T01:26:46;16.72;77.92
65058;HTU21D;51644;51.068;5.860;2022-07-01T01:27:45;16.69;77.75
65058;HTU21D;51644;51.068;5.860;2022-07-01T01:28:44;16.60;78.18
65058;HTU21D;51644;51.068;5.860;2022-07-01T01:29:43;16.60;78.18
65058;HTU21D;51644;51.068;5.860;2022-07-01T01:30:45;16.60;77.93
65058;HTU21D;51644;51.068;5.860;2022-07-01T01:31:43;16.58;78.11
65058;HTU21D;51644;51.068;5.860;2022-07-01T01:32:42;16.60;78.07
65058;HTU21D;51644;51.068;5.860;2022-07-01T01:33:42;16.60;78.11
65058;HTU21D;51644;51.068;5.860;2022-07-01T01:34:40;16.61;78.03
65058;HTU21D;51644;51.068;5.860;2022-07-01T01:35:39;16.59;77.97
65058;HTU21D;51644;51.068;5.860;2022-07-01T01:36:39;16.61;78.03
65058;HTU21D;51644;51.068;5.860;2022-07-01T01:37:38;16.59;78.03
65058;HTU21D;51644;51.068;5.860;2022-07-01T01:38:39;16.57;78.24
65058;HTU21D;51644;51.068;5.860;2022-07-01T01:39:38;16.54;78.40
65058;HTU21D;51644;51.068;5.860;2022-07-01T01:40:36;16.57;78.17
65058;HTU21D;51644;51.068;5.860;2022-07-01T01:41:53;16.62;78.11
65058;HTU21D;51644;51.068;5.860;2022-07-01T01:42:52;16.64;78.08
65058;HTU21D;51644;51.068;5.860;2022-07-01T01:43:51;16.65;77.98
65058;HTU21D;51644;51.068;5.860;2022-07-01T01:44:50;16.67;77.97
65058;HTU21D;51644;51.068;5.860;2022-07-01T01:45:53;16.71;77.82
65058;HTU21D;51644;51.068;5.860;2022-07-01T01:46:51;16.70;77.79
65058;HTU21D;51644;51.068;5.860;2022-07-01T01:47:50;16.65;78.03
65058;HTU21D;51644;51.068;5.860;2022-07-01T01:48:49;16.69;77.79
65058;HTU21D;51644;51.068;5.860;2022-07-01T01:49:48;16.69;77.66
65058;HTU21D;51644;51.068;5.860;2022-07-01T01:50:49;16.67;77.82
65058;HTU21D;51644;51.068;5.860;2022-07-01T01:51:48;16.70;77.62
65058;HTU21D;51644;51.068;5.860;2022-07-01T01:52:47;16.67;77.68
65058;HTU21D;51644;51.068;5.860;2022-07-01T01:53:46;16.66;77.71
65058;HTU21D;51644;51.068;5.860;2022-07-01T01:54:47;16.67;77.72
65058;HTU21D;51644;51.068;5.860;2022-07-01T01:55:46;16.67;77.69
65058;HTU21D;51644;51.068;5.860;2022-07-01T01:56:44;16.70;77.72
65058;HTU21D;51644;51.068;5.860;2022-07-01T01:57:43;16.72;77.66
65058;HTU21D;51644;51.068;5.860;2022-07-01T01:58:42;16.72;77.73
65058;HTU21D;51644;51.068;5.860;2022-07-01T01:59:51;16.67;77.92
65058;HTU21D;51644;51.068;5.860;2022-07-01T02:01:20;16.66;77.78
65058;HTU21D;51644;51.068;5.860;2022-07-01T02:02:23;16.65;77.87
65058;HTU21D;51644;51.068;5.860;2022-07-01T02:03:24;16.62;77.82
65058;HTU21D;51644;51.068;5.860;2022-07-01T02:04:23;16.59;78.14
65058;HTU21D;51644;51.068;5.860;2022-07-01T02:05:24;16.60;78.01
65058;HTU21D;51644;51.068;5.860;2022-07-01T02:06:23;16.60;77.98
65058;HTU21D;51644;51.068;5.860;2022-07-01T02:07:21;16.48;78.63
65058;HTU21D;51644;51.068;5.860;2022-07-01T02:08:20;16.55;78.03
65058;HTU21D;51644;51.068;5.860;2022-07-01T02:09:19;16.51;78.11
65058;HTU21D;51644;51.068;5.860;2022-07-01T02:10:18;16.57;77.89
65058;HTU21D;51644;51.068;5.860;2022-07-01T02:11:17;16.59;77.85
65058;HTU21D;51644;51.068;5.860;2022-07-01T02:12:16;16.54;78.22
65058;HTU21D;51644;51.068;5.860;2022-07-01T02:13:15;16.59;77.76
65058;HTU21D;51644;51.068;5.860;2022-07-01T02:14:13;16.61;77.75
65058;HTU21D;51644;51.068;5.860;2022-07-01T02:15:13;16.51;78.18
65058;HTU21D;51644;51.068;5.860;2022-07-01T02:16:11;16.57;77.74
65058;HTU21D;51644;51.068;5.860;2022-07-01T02:17:10;16.51;78.06
65058;HTU21D;51644;51.068;5.860;2022-07-01T02:18:09;16.50;77.98
65058;HTU21D;51644;51.068;5.860;2022-07-01T02:19:07;16.52;77.82
65058;HTU21D;51644;51.068;5.860;2022-07-01T02:20:09;16.49;77.88
65058;HTU21D;51644;51.068;5.860;2022-07-01T02:21:08;16.51;77.82
65058;HTU21D;51644;51.068;5.860;2022-07-01T02:22:10;16.55;77.74
65058;HTU21D;51644;51.068;5.860;2022-07-01T02:23:09;16.56;77.85
65058;HTU21D;51644;51.068;5.860;2022-07-01T02:24:08;16.58;77.63
65058;HTU21D;51644;51.068;5.860;2022-07-01T02:25:08;16.61;77.52
65058;HTU21D;51644;51.068;5.860;2022-07-01T02:26:07;16.65;77.45
65058;HTU21D;51644;51.068;5.860;2022-07-01T02:27:05;16.67;77.34
65058;HTU21D;51644;51.068;5.860;2022-07-01T02:28:04;16.70;77.29
65058;HTU21D;51644;51.068;5.860;2022-07-01T02:29:03;16.70;77.12
65058;HTU21D;51644;51.068;5.860;2022-07-01T02:30:06;16.71;77.16
65058;HTU21D;51644;51.068;5.860;2022-07-01T02:31:05;16.69;77.24
65058;HTU21D;51644;51.068;5.860;2022-07-01T02:32:04;16.70;77.18
65058;HTU21D;51644;51.068;5.860;2022-07-01T02:33:03;16.72;77.20
65058;HTU21D;51644;51.068;5.860;2022-07-01T02:34:02;16.73;77.18
65058;HTU21D;51644;51.068;5.860;2022-07-01T02:35:00;16.76;77.24
65058;HTU21D;51644;51.068;5.860;2022-07-01T02:35:59;16.78;76.95
65058;HTU21D;51644;51.068;5.860;2022-07-01T02:36:58;16.78;76.98
65058;HTU21D;51644;51.068;5.860;2022-07-01T02:37:59;16.78;76.93
65058;HTU21D;51644;51.068;5.860;2022-07-01T02:38:58;16.80;76.86
65058;HTU21D;51644;51.068;5.860;2022-07-01T02:39:56;16.80;76.80
65058;HTU21D;51644;51.068;5.860;2022-07-01T02:40:55;16.74;77.05
65058;HTU21D;51644;51.068;5.860;2022-07-01T02:41:53;16.71;76.96
65058;HTU21D;51644;51.068;5.860;2022-07-01T02:43:10;16.65;76.93
65058;HTU21D;51644;51.068;5.860;2022-07-01T02:44:14;16.60;77.24
65058;HTU21D;51644;51.068;5.860;2022-07-01T02:45:13;16.60;77.39
65058;HTU21D;51644;51.068;5.860;2022-07-01T02:46:11;16.56;77.49
65058;HTU21D;51644;51.068;5.860;2022-07-01T02:47:10;16.56;77.36
65058;HTU21D;51644;51.068;5.860;2022-07-01T02:48:09;16.55;77.45
65058;HTU21D;51644;51.068;5.860;2022-07-01T02:49:11;16.45;77.73
65058;HTU21D;51644;51.068;5.860;2022-07-01T02:50:11;16.48;77.47
65058;HTU21D;51644;51.068;5.860;2022-07-01T02:51:10;16.51;77.36
65058;HTU21D;51644;51.068;5.860;2022-07-01T02:52:08;16.46;77.63
65058;HTU21D;51644;51.068;5.860;2022-07-01T02:53:07;16.45;77.52
65058;HTU21D;51644;51.068;5.860;2022-07-01T02:54:05;16.50;77.45
65058;HTU21D;51644;51.068;5.860;2022-07-01T02:55:06;16.48;77.50
65058;HTU21D;51644;51.068;5.860;2022-07-01T02:56:05;16.48;77.62
65058;HTU21D;51644;51.068;5.860;2022-07-01T02:57:04;16.49;77.41
65058;HTU21D;51644;51.068;5.860;2022-07-01T02:58:02;16.48;77.49
65058;HTU21D;51644;51.068;5.860;2022-07-01T02:59:02;16.40;77.90
65058;HTU21D;51644;51.068;5.860;2022-07-01T03:00:03;16.45;77.55
65058;HTU21D;51644;51.068;5.860;2022-07-01T03:01:04;16.45;77.52
65058;HTU21D;51644;51.068;5.860;2022-07-01T03:02:02;16.40;77.77
65058;HTU21D;51644;51.068;5.860;2022-07-01T03:03:01;16.41;77.47
65058;HTU21D;51644;51.068;5.860;2022-07-01T03:04:00;16.39;77.52
65058;HTU21D;51644;51.068;5.860;2022-07-01T03:04:59;16.37;77.44
65058;HTU21D;51644;51.068;5.860;2022-07-01T03:05:58;16.39;77.38
65058;HTU21D;51644;51.068;5.860;2022-07-01T03:06:57;16.37;77.50
65058;HTU21D;51644;51.068;5.860;2022-07-01T03:07:55;16.35;77.66
65058;HTU21D;51644;51.068;5.860;2022-07-01T03:08:54;16.31;77.74
65058;HTU21D;51644;51.068;5.860;2022-07-01T03:09:54;16.34;77.52
65058;HTU21D;51644;51.068;5.860;2022-07-01T03:10:52;16.34;77.43
65058;HTU21D;51644;51.068;5.860;2022-07-01T03:11:51;16.30;77.62
65058;HTU21D;51644;51.068;5.860;2022-07-01T03:12:50;16.31;77.51
65058;HTU21D;51644;51.068;5.860;2022-07-01T03:13:48;16.32;77.59
65058;HTU21D;51644;51.068;5.860;2022-07-01T03:14:47;16.34;77.50
65058;HTU21D;51644;51.068;5.860;2022-07-01T03:15:48;16.33;77.64
65058;HTU21D;51644;51.068;5.860;2022-07-01T03:16:46;16.34;77.51
65058;HTU21D;51644;51.068;5.860;2022-07-01T03:17:47;16.34;77.63
65058;HTU21D;51644;51.068;5.860;2022-07-01T03:18:49;16.28;77.78
65058;HTU21D;51644;51.068;5.860;2022-07-01T03:19:49;16.30;77.69
65058;HTU21D;51644;51.068;5.860;2022-07-01T03:20:47;16.28;77.63
65058;HTU21D;51644;51.068;5.860;2022-07-01T03:21:47;16.31;77.49
65058;HTU21D;51644;51.068;5.860;2022-07-01T03:22:46;16.30;77.57
65058;HTU21D;51644;51.068;5.860;2022-07-01T03:23:45;16.28;77.71
65058;HTU21D;51644;51.068;5.860;2022-07-01T03:24:44;16.30;77.63
65058;HTU21D;51644;51.068;5.860;2022-07-01T03:25:45;16.33;77.53
65058;HTU21D;51644;51.068;5.860;2022-07-01T03:26:44;16.36;77.54
65058;HTU21D;51644;51.068;5.860;2022-07-01T03:27:43;16.37;77.58
65058;HTU21D;51644;51.068;5.860;2022-07-01T03:28:46;16.40;77.57
65058;HTU21D;51644;51.068;5.860;2022-07-01T03:29:45;16.37;77.66
65058;HTU21D;51644;51.068;5.860;2022-07-01T03:30:43;16.41;77.53
65058;HTU21D;51644;51.068;5.860;2022-07-01T03:31:44;16.39;77.69
65058;HTU21D;51644;51.068;5.860;2022-07-01T03:32:43;16.39;77.54
65058;HTU21D;51644;51.068;5.860;2022-07-01T03:33:42;16.35;77.69
65058;HTU21D;51644;51.068;5.860;2022-07-01T03:34:43;16.32;77.95
65058;HTU21D;51644;51.068;5.860;2022-07-01T03:35:41;16.33;77.75
65058;HTU21D;51644;51.068;5.860;2022-07-01T03:36:43;16.29;78.20
65058;HTU21D;51644;51.068;5.860;2022-07-01T03:37:42;16.30;77.86
65058;HTU21D;51644;51.068;5.860;2022-07-01T03:38:40;16.27;78.21
65058;HTU21D;51644;51.068;5.860;2022-07-01T03:39:41;16.26;78.27
65058;HTU21D;51644;51.068;5.860;2022-07-01T03:40:40;16.26;77.92
65058;HTU21D;51644;51.068;5.860;2022-07-01T03:41:39;16.28;77.76
65058;HTU21D;51644;51.068;5.860;2022-07-01T03:42:37;16.24;78.30
65058;HTU21D;51644;51.068;5.860;2022-07-01T03:43:38;16.24;78.05
65058;HTU21D;51644;51.068;5.860;2022-07-01T03:44:37;16.25;78.07
65058;HTU21D;51644;51.068;5.860;2022-07-01T03:45:36;16.25;77.91
65058;HTU21D;51644;51.068;5.860;2022-07-01T03:46:35;16.26;77.87
65058;HTU21D;51644;51.068;5.860;2022-07-01T03:47:34;16.28;77.66
65058;HTU21D;51644;51.068;5.860;2022-07-01T03:48:32;16.25;77.85
65058;HTU21D;51644;51.068;5.860;2022-07-01T03:49:35;16.17;78.24
65058;HTU21D;51644;51.068;5.860;2022-07-01T03:50:34;16.18;77.94
65058;HTU21D;51644;51.068;5.860;2022-07-01T03:51:32;16.16;77.97
65058;HTU21D;51644;51.068;5.860;2022-07-01T03:52:31;16.21;77.89
65058;HTU21D;51644;51.068;5.860;2022-07-01T03:53:29;16.22;77.83
65058;HTU21D;51644;51.068;5.860;2022-07-01T03:54:46;16.18;77.92
65058;HTU21D;51644;51.068;5.860;2022-07-01T03:55:45;16.20;77.85
65058;HTU21D;51644;51.068;5.860;2022-07-01T03:56:43;16.16;78.14
65058;HTU21D;51644;51.068;5.860;2022-07-01T03:57:42;16.13;78.25
65058;HTU21D;51644;51.068;5.860;2022-07-01T03:58:40;16.07;78.46
65058;HTU21D;51644;51.068;5.860;2022-07-01T03:59:40;16.08;78.12
65058;HTU21D;51644;51.068;5.860;2022-07-01T04:00:39;16.08;78.18
65058;HTU21D;51644;51.068;5.860;2022-07-01T04:01:38;16.03;78.56
65058;HTU21D;51644;51.068;5.860;2022-07-01T04:02:36;16.07;78.39
65058;HTU21D;51644;51.068;5.860;2022-07-01T04:03:35;16.05;78.52
65058;HTU21D;51644;51.068;5.860;2022-07-01T04:04:34;16.00;78.70
65058;HTU21D;51644;51.068;5.860;2022-07-01T04:05:35;16.03;78.56
65058;HTU21D;51644;51.068;5.860;2022-07-01T04:06:35;16.04;78.49
65058;HTU21D;51644;51.068;5.860;2022-07-01T04:07:34;16.03;78.58
65058;HTU21D;51644;51.068;5.860;2022-07-01T04:08:33;16.01;78.56
65058;HTU21D;51644;51.068;5.860;2022-07-01T04:09:32;15.97;78.91
65058;HTU21D;51644;51.068;5.860;2022-07-01T04:10:32;15.96;78.80
65058;HTU21D;51644;51.068;5.860;2022-07-01T04:11:31;15.91;79.03
65058;HTU21D;51644;51.068;5.860;2022-07-01T04:12:30;15.90;78.92
65058;HTU21D;51644;51.068;5.860;2022-07-01T04:13:29;15.87;79.18
65058;HTU21D;51644;51.068;5.860;2022-07-01T04:14:29;15.91;78.82
65058;HTU21D;51644;51.068;5.860;2022-07-01T04:15:28;15.88;79.20
65058;HTU21D;51644;51.068;5.860;2022-07-01T04:16:27;15.91;78.81
65058;HTU21D;51644;51.068;5.860;2022-07-01T04:17:26;15.91;79.09
65058;HTU21D;51644;51.068;5.860;2022-07-01T04:18:25;15.89;79.30
65058;HTU21D;51644;51.068;5.860;2022-07-01T04:19:24;15.92;78.88
65058;HTU21D;51644;51.068;5.860;2022-07-01T04:20:23;15.93;78.80
65058;HTU21D;51644;51.068;5.860;2022-07-01T04:21:22;15.99;78.66
65058;HTU21D;51644;51.068;5.860;2022-07-01T04:22:39;16.00;78.56
65058;HTU21D;51644;51.068;5.860;2022-07-01T04:23:37;15.99;78.82
65058;HTU21D;51644;51.068;5.860;2022-07-01T04:24:36;16.02;78.64
65058;HTU21D;51644;51.068;5.860;2022-07-01T04:25:34;16.00;78.67
65058;HTU21D;51644;51.068;5.860;2022-07-01T04:26:33;16.02;78.49
65058;HTU21D;51644;51.068;5.860;2022-07-01T04:27:32;16.06;78.37
65058;HTU21D;51644;51.068;5.860;2022-07-01T04:28:31;16.07;78.29
65058;HTU21D;51644;51.068;5.860;2022-07-01T04:29:30;16.06;78.37
65058;HTU21D;51644;51.068;5.860;2022-07-01T04:30:28;16.11;78.27
65058;HTU21D;51644;51.068;5.860;2022-07-01T04:31:27;16.15;78.18
65058;HTU21D;51644;51.068;5.860;2022-07-01T04:32:26;16.21;78.05
65058;HTU21D;51644;51.068;5.860;2022-07-01T04:33:25;16.27;77.86
65058;HTU21D;51644;51.068;5.860;2022-07-01T04:34:25;16.27;77.92
65058;HTU21D;51644;51.068;5.860;2022-07-01T04:35:23;16.29;77.65
65058;HTU21D;51644;51.068;5.860;2022-07-01T04:36:22;16.28;77.72
65058;HTU21D;51644;51.068;5.860;2022-07-01T04:37:20;16.31;77.53
65058;HTU21D;51644;51.068;5.860;2022-07-01T04:38:19;16.25;77.88
65058;HTU21D;51644;51.068;5.860;2022-07-01T04:39:18;16.30;77.57
65058;HTU21D;51644;51.068;5.860;2022-07-01T04:40:17;16.29;77.78
65058;HTU21D;51644;51.068;5.860;2022-07-01T04:41:15;16.26;77.85
65058;HTU21D;51644;51.068;5.860;2022-07-01T04:42:33;16.28;77.72
65058;HTU21D;51644;51.068;5.860;2022-07-01T04:43:31;16.30;77.63
65058;HTU21D;51644;51.068;5.860;2022-07-01T04:44:32;16.31;77.54
65058;HTU21D;51644;51.068;5.860;2022-07-01T04:45:32;16.32;77.49
65058;HTU21D;51644;51.068;5.860;2022-07-01T04:46:31;16.30;77.67
65058;HTU21D;51644;51.068;5.860;2022-07-01T04:47:29;16.29;77.74
65058;HTU21D;51644;51.068;5.860;2022-07-01T04:48:30;16.32;77.51
65058;HTU21D;51644;51.068;5.860;2022-07-01T04:49:29;16.32;77.65
65058;HTU21D;51644;51.068;5.860;2022-07-01T04:50:28;16.37;77.36
65058;HTU21D;51644;51.068;5.860;2022-07-01T04:51:26;16.41;77.37
65058;HTU21D;51644;51.068;5.860;2022-07-01T04:52:25;16.43;77.44
65058;HTU21D;51644;51.068;5.860;2022-07-01T04:53:24;16.47;77.16
65058;HTU21D;51644;51.068;5.860;2022-07-01T04:54:23;16.49;77.17
65058;HTU21D;51644;51.068;5.860;2022-07-01T04:55:21;16.47;77.27
65058;HTU21D;51644;51.068;5.860;2022-07-01T04:56:20;16.51;77.07
65058;HTU21D;51644;51.068;5.860;2022-07-01T04:57:19;16.45;77.29
65058;HTU21D;51644;51.068;5.860;2022-07-01T04:58:17;16.52;77.00
65058;HTU21D;51644;51.068;5.860;2022-07-01T04:59:16;16.55;77.18
65058;HTU21D;51644;51.068;5.860;2022-07-01T05:00:15;16.57;76.99
65058;HTU21D;51644;51.068;5.860;2022-07-01T05:01:13;16.65;76.73
65058;HTU21D;51644;51.068;5.860;2022-07-01T05:02:12;16.67;76.82
65058;HTU21D;51644;51.068;5.860;2022-07-01T05:03:11;16.69;76.66
65058;HTU21D;51644;51.068;5.860;2022-07-01T05:04:11;16.74;76.43
65058;HTU21D;51644;51.068;5.860;2022-07-01T05:05:10;16.77;76.40
65058;HTU21D;51644;51.068;5.860;2022-07-01T05:06:09;16.77;76.51
65058;HTU21D;51644;51.068;5.860;2022-07-01T05:07:08;16.85;76.18
65058;HTU21D;51644;51.068;5.860;2022-07-01T05:08:26;16.92;75.98
65058;HTU21D;51644;51.068;5.860;2022-07-01T05:09:24;16.99;75.79
65058;HTU21D;51644;51.068;5.860;2022-07-01T05:10:23;16.99;75.63
65058;HTU21D;51644;51.068;5.860;2022-07-01T05:11:22;16.96;75.65
65058;HTU21D;51644;51.068;5.860;2022-07-01T05:12:21;16.98;75.46
65058;HTU21D;51644;51.068;5.860;2022-07-01T05:13:20;17.01;75.41
65058;HTU21D;51644;51.068;5.860;2022-07-01T05:14:18;17.01;75.46
65058;HTU21D;51644;51.068;5.860;2022-07-01T05:15:17;16.99;75.51
65058;HTU21D;51644;51.068;5.860;2022-07-01T05:16:15;17.02;75.32
65058;HTU21D;51644;51.068;5.860;2022-07-01T05:17:14;17.03;75.29
65058;HTU21D;51644;51.068;5.860;2022-07-01T05:18:13;17.02;75.34
65058;HTU21D;51644;51.068;5.860;2022-07-01T05:19:30;17.06;75.18
65058;HTU21D;51644;51.068;5.860;2022-07-01T05:20:47;17.09;75.22
65058;HTU21D;51644;51.068;5.860;2022-07-01T05:22:05;17.17;75.15
65058;HTU21D;51644;51.068;5.860;2022-07-01T05:23:03;17.17;75.05
65058;HTU21D;51644;51.068;5.860;2022-07-01T05:24:02;17.20;74.90
65058;HTU21D;51644;51.068;5.860;2022-07-01T05:25:01;17.22;74.79
65058;HTU21D;51644;51.068;5.860;2022-07-01T05:26:00;17.21;74.75
65058;HTU21D;51644;51.068;5.860;2022-07-01T05:27:00;17.18;74.89
65058;HTU21D;51644;51.068;5.860;2022-07-01T05:27:59;17.16;74.91
65058;HTU21D;51644;51.068;5.860;2022-07-01T05:28:57;17.14;74.54
65058;HTU21D;51644;51.068;5.860;2022-07-01T05:29:56;17.09;75.09
65058;HTU21D;51644;51.068;5.860;2022-07-01T05:30:55;17.09;75.00
65058;HTU21D;51644;51.068;5.860;2022-07-01T05:31:54;17.10;75.02
65058;HTU21D;51644;51.068;5.860;2022-07-01T05:32:52;17.10;75.09
65058;HTU21D;51644;51.068;5.860;2022-07-01T05:33:51;17.14;75.00
65058;HTU21D;51644;51.068;5.860;2022-07-01T05:34:49;17.18;75.00
65058;HTU21D;51644;51.068;5.860;2022-07-01T05:35:48;17.22;74.94
65058;HTU21D;51644;51.068;5.860;2022-07-01T05:36:46;17.26;74.86
65058;HTU21D;51644;51.068;5.860;2022-07-01T05:37:45;17.32;74.85
65058;HTU21D;51644;51.068;5.860;2022-07-01T05:38:44;17.33;74.83
65058;HTU21D;51644;51.068;5.860;2022-07-01T05:39:42;17.37;74.66
65058;HTU21D;51644;51.068;5.860;2022-07-01T05:40:41;17.35;74.70
65058;HTU21D;51644;51.068;5.860;2022-07-01T05:41:39;17.40;74.63
65058;HTU21D;51644;51.068;5.860;2022-07-01T05:42:38;17.48;74.42
65058;HTU21D;51644;51.068;5.860;2022-07-01T05:43:37;17.55;74.32
65058;HTU21D;51644;51.068;5.860;2022-07-01T05:44:35;17.64;73.97
65058;HTU21D;51644;51.068;5.860;2022-07-01T05:45:34;17.75;73.67
65058;HTU21D;51644;51.068;5.860;2022-07-01T05:46:32;17.85;73.30
65058;HTU21D;51644;51.068;5.860;2022-07-01T05:47:31;17.92;73.01
65058;HTU21D;51644;51.068;5.860;2022-07-01T05:48:29;17.99;72.76
65058;HTU21D;51644;51.068;5.860;2022-07-01T05:49:28;18.08;72.70
65058;HTU21D;51644;51.068;5.860;2022-07-01T05:50:26;18.19;72.48
65058;HTU21D;51644;51.068;5.860;2022-07-01T05:51:25;18.29;72.11
65058;HTU21D;51644;51.068;5.860;2022-07-01T05:52:24;18.34;71.90
65058;HTU21D;51644;51.068;5.860;2022-07-01T05:53:22;18.39;71.60
65058;HTU21D;51644;51.068;5.860;2022-07-01T05:54:21;18.41;71.45
65058;HTU21D;51644;51.068;5.860;2022-07-01T05:55:19;18.39;71.44
65058;HTU21D;51644;51.068;5.860;2022-07-01T05:56:18;18.35;71.48
65058;HTU21D;51644;51.068;5.860;2022-07-01T05:57:17;18.36;71.61
65058;HTU21D;51644;51.068;5.860;2022-07-01T05:58:16;18.35;71.70
65058;HTU21D;51644;51.068;5.860;2022-07-01T05:59:14;18.35;71.63
65058;HTU21D;51644;51.068;5.860;2022-07-01T06:00:13;18.35;71.74
65058;HTU21D;51644;51.068;5.860;2022-07-01T06:01:12;18.36;71.76
65058;HTU21D;51644;51.068;5.860;2022-07-01T06:02:10;18.38;71.81
65058;HTU21D;51644;51.068;5.860;2022-07-01T06:03:10;18.46;71.60
65058;HTU21D;51644;51.068;5.860;2022-07-01T06:04:09;18.51;71.51
65058;HTU21D;51644;51.068;5.860;2022-07-01T06:05:08;18.59;71.29
65058;HTU21D;51644;51.068;5.860;2022-07-01T06:06:06;18.64;71.09
65058;HTU21D;51644;51.068;5.860;2022-07-01T06:07:05;18.70;70.74
65058;HTU21D;51644;51.068;5.860;2022-07-01T06:08:04;18.74;70.63
65058;HTU21D;51644;51.068;5.860;2022-07-01T06:09:04;18.76;70.58
65058;HTU21D;51644;51.068;5.860;2022-07-01T06:10:02;18.77;70.19
65058;HTU21D;51644;51.068;5.860;2022-07-01T06:11:02;18.77;70.39
65058;HTU21D;51644;51.068;5.860;2022-07-01T06:12:02;18.77;70.41